createdAt,value
2023-02-19T00:01:48.340Z,101520.41
2023-02-19T00:04:21.977Z,101518.69
2023-02-19T00:06:50.083Z,101521.28
2023-02-19T00:09:19.277Z,101516.09
2023-02-19T00:11:47.637Z,101517.81
2023-02-19T00:14:20.963Z,101514.38
2023-02-19T00:16:48.805Z,101509.19
2023-02-19T00:19:18.778Z,101510.03
2023-02-19T00:21:45.657Z,101510.03
2023-02-19T00:24:13.980Z,101507.44
2023-02-19T00:26:42.634Z,101512.63
2023-02-19T00:29:14.510Z,101505.72
2023-02-19T00:31:42.367Z,101501.44
2023-02-19T00:34:10.988Z,101499.75
2023-02-19T00:36:40.183Z,101498.06
2023-02-19T00:39:08.525Z,101497.25
2023-02-19T00:41:35.510Z,101495.53
2023-02-19T00:44:15.923Z,101487.88
2023-02-19T00:46:48.058Z,101487.78
2023-02-19T00:49:32.923Z,101487.78
2023-02-19T00:51:59.754Z,101489.50
2023-02-19T00:54:26.565Z,101494.72
2023-02-19T00:56:53.387Z,101490.38
2023-02-19T00:59:20.525Z,101485.16
2023-02-19T01:01:47.651Z,101481.72
2023-02-19T01:04:16.339Z,101474.75
2023-02-19T01:06:43.322Z,101473.88
2023-02-19T01:09:10.493Z,101478.16
2023-02-19T01:11:37.259Z,101473.81
2023-02-19T01:14:04.969Z,101484.19
2023-02-19T01:16:31.923Z,101480.72
2023-02-19T01:19:00.326Z,101471.19
2023-02-19T01:21:29.560Z,101483.31
2023-02-19T01:23:57.663Z,101483.31
2023-02-19T01:26:30.172Z,101480.63
2023-02-19T01:28:59.443Z,101484.97
2023-02-19T01:31:26.885Z,101483.22
2023-02-19T01:33:59.004Z,101484.00
2023-02-19T01:36:27.117Z,101476.22
2023-02-19T01:38:54.517Z,101478.81
2023-02-19T01:41:26.242Z,101478.00
2023-02-19T01:44:00.474Z,101483.16
2023-02-19T01:46:38.937Z,101477.09
2023-02-19T01:49:15.416Z,101479.66
2023-02-19T01:51:48.315Z,101478.81
2023-02-19T01:54:19.507Z,101477.88
2023-02-19T01:56:48.429Z,101491.75
2023-02-19T01:59:17.006Z,101487.47
2023-02-19T02:01:44.483Z,101485.75
2023-02-19T02:04:14.372Z,101490.94
2023-02-19T02:06:50.450Z,101490.19
2023-02-19T02:09:39.290Z,101488.44
2023-02-19T02:12:31.648Z,101494.59
2023-02-19T02:14:58.405Z,101494.59
2023-02-19T02:17:31.489Z,101493.88
2023-02-19T02:20:22.592Z,101499.13
2023-02-19T02:23:21.804Z,101494.84
2023-02-19T02:25:59.206Z,101489.63
2023-02-19T02:29:04.420Z,101490.56
2023-02-19T02:31:57.418Z,101493.19
2023-02-19T02:34:35.542Z,101488.88
2023-02-19T02:37:05.460Z,101484.59
2023-02-19T02:39:33.003Z,101492.31
2023-02-19T02:42:19.840Z,101482.81
2023-02-19T02:45:37.111Z,101494.03
2023-02-19T02:48:55.415Z,101494.91
2023-02-19T02:51:47.732Z,101495.69
2023-02-19T02:54:49.875Z,101487.97
2023-02-19T02:57:19.486Z,101494.00
2023-02-19T02:59:53.788Z,101502.63
2023-02-19T03:02:29.961Z,101500.06
2023-02-19T03:05:38.299Z,101506.13
2023-02-19T03:08:26.133Z,101503.53
2023-02-19T03:11:25.527Z,101507.06
2023-02-19T03:14:19.327Z,101505.28
2023-02-19T03:17:07.150Z,101505.34
2023-02-19T03:19:41.200Z,101517.44
2023-02-19T03:22:15.913Z,101519.16
2023-02-19T03:25:08.847Z,101528.59
2023-02-19T03:27:38.243Z,101519.97
2023-02-19T03:30:13.266Z,101525.13
2023-02-19T03:33:08.080Z,101524.25
2023-02-19T03:36:01.511Z,101522.53
2023-02-19T03:38:54.824Z,101526.88
2023-02-19T03:41:48.096Z,101531.22
2023-02-19T03:44:42.247Z,101540.66
2023-02-19T03:47:30.625Z,101538.06
2023-02-19T03:50:06.431Z,101537.25
2023-02-19T03:53:06.311Z,101534.69
2023-02-19T03:56:28.570Z,101545.94
2023-02-19T03:59:05.782Z,101538.16
2023-02-19T04:01:48.593Z,101547.63
2023-02-19T04:04:28.923Z,101554.56
2023-02-19T04:06:57.708Z,101549.34
2023-02-19T04:09:37.623Z,101551.03
2023-02-19T04:12:11.157Z,101552.81
2023-02-19T04:14:51.543Z,101559.72
2023-02-19T04:17:31.502Z,101570.06
2023-02-19T04:20:00.158Z,101569.22
2023-02-19T04:22:27.227Z,101573.53
2023-02-19T04:24:55.551Z,101573.53
2023-02-19T04:27:22.452Z,101571.81
2023-02-19T04:29:49.214Z,101581.28
2023-02-19T04:32:16.101Z,101580.47
2023-02-19T04:34:42.844Z,101585.59
2023-02-19T04:37:09.622Z,101589.91
2023-02-19T04:39:36.431Z,101600.28
2023-02-19T04:42:03.338Z,101596.88
2023-02-19T04:44:30.204Z,101604.59
2023-02-19T04:46:57.098Z,101603.75
2023-02-19T04:49:23.987Z,101610.66
2023-02-19T04:51:50.727Z,101614.06
2023-02-19T04:54:17.492Z,101606.38
2023-02-19T04:56:44.369Z,101602.13
2023-02-19T04:59:11.143Z,101612.47
2023-02-19T05:01:37.986Z,101613.38
2023-02-19T05:04:05.328Z,101615.13
2023-02-19T05:06:32.165Z,101616.84
2023-02-19T05:08:58.900Z,101624.63
2023-02-19T05:11:25.844Z,101624.66
2023-02-19T05:13:52.662Z,101625.53
2023-02-19T05:16:19.436Z,101635.91
2023-02-19T05:18:47.356Z,101639.31
2023-02-19T05:21:15.271Z,101646.28
2023-02-19T05:23:42.288Z,101648.00
2023-02-19T05:26:19.806Z,101644.50
2023-02-19T05:28:49.964Z,101659.22
2023-02-19T05:31:17.521Z,101661.81
2023-02-19T05:33:45.650Z,101663.53
2023-02-19T05:36:13.946Z,101662.63
2023-02-19T05:38:41.488Z,101673.88
2023-02-19T05:41:12.602Z,101669.56
2023-02-19T05:43:40.805Z,101667.84
2023-02-19T05:46:08.882Z,101663.63
2023-02-19T05:48:35.744Z,101668.00
2023-02-19T05:51:07.817Z,101677.44
2023-02-19T05:53:35.880Z,101684.41
2023-02-19T05:56:02.923Z,101691.28
2023-02-19T05:58:30.205Z,101692.97
2023-02-19T06:00:57.349Z,101687.81
2023-02-19T06:03:24.209Z,101693.91
2023-02-19T06:05:51.088Z,101688.72
2023-02-19T06:08:17.785Z,101694.84
2023-02-19T06:10:44.562Z,101688.75
2023-02-19T06:13:11.480Z,101701.69
2023-02-19T06:15:38.701Z,101702.59
2023-02-19T06:18:05.678Z,101698.34
2023-02-19T06:20:33.048Z,101693.16
2023-02-19T06:22:59.890Z,101703.47
2023-02-19T06:25:26.610Z,101713.81
2023-02-19T06:27:53.340Z,101708.66
2023-02-19T06:30:20.474Z,101700.00
2023-02-19T06:32:47.367Z,101704.34
2023-02-19T06:35:14.170Z,101715.56
2023-02-19T06:37:40.923Z,101713.84
2023-02-19T06:40:08.568Z,101732.00
2023-02-19T06:42:35.298Z,101723.34
2023-02-19T06:45:02.467Z,101731.13
2023-02-19T06:47:33.203Z,101729.41
2023-02-19T06:50:00.620Z,101727.69
2023-02-19T06:52:28.404Z,101738.03
2023-02-19T06:54:55.222Z,101739.75
2023-02-19T06:57:21.958Z,101747.53
2023-02-19T06:59:48.662Z,101752.69
2023-02-19T07:02:15.391Z,101757.88
2023-02-19T07:04:42.149Z,101765.59
2023-02-19T07:07:12.024Z,101770.81
2023-02-19T07:09:38.810Z,101779.41
2023-02-19T07:12:06.123Z,101778.53
2023-02-19T07:14:33.031Z,101776.81
2023-02-19T07:16:59.834Z,101776.81
2023-02-19T07:19:26.541Z,101771.59
2023-02-19T07:21:53.269Z,101780.22
2023-02-19T07:24:21.626Z,101784.50
2023-02-19T07:26:48.480Z,101792.28
2023-02-19T07:29:15.245Z,101798.34
2023-02-19T07:31:43.379Z,101804.34
2023-02-19T07:34:10.100Z,101805.22
2023-02-19T07:36:36.925Z,101807.78
2023-02-19T07:39:04.487Z,101812.97
2023-02-19T07:41:31.653Z,101813.78
2023-02-19T07:43:59.117Z,101826.75
2023-02-19T07:46:26.123Z,101834.53
2023-02-19T07:48:52.944Z,101831.03
2023-02-19T07:51:20.774Z,101842.22
2023-02-19T07:53:52.309Z,101846.50
2023-02-19T07:56:20.829Z,101843.97
2023-02-19T07:58:47.788Z,101855.25
2023-02-19T08:01:16.395Z,101862.13
2023-02-19T08:03:44.512Z,101862.13
2023-02-19T08:06:12.708Z,101863.00
2023-02-19T08:08:40.479Z,101864.69
2023-02-19T08:11:26.466Z,101862.91
2023-02-19T08:13:53.767Z,101875.78
2023-02-19T08:16:36.726Z,101872.28
2023-02-19T08:19:07.725Z,101874.09
2023-02-19T08:21:34.598Z,101880.84
2023-02-19T08:24:01.382Z,101870.41
2023-02-19T08:26:28.179Z,101872.09
2023-02-19T08:28:54.961Z,101891.13
2023-02-19T08:31:21.767Z,101894.63
2023-02-19T08:33:48.551Z,101899.81
2023-02-19T08:36:15.257Z,101891.06
2023-02-19T08:38:42.092Z,101897.03
2023-02-19T08:41:12.879Z,101895.31
2023-02-19T08:43:40.922Z,101888.28
2023-02-19T08:46:10.283Z,101892.59
2023-02-19T08:48:38.468Z,101896.06
2023-02-19T08:51:09.810Z,101893.44
2023-02-19T08:53:38.982Z,101891.53
2023-02-19T08:56:12.468Z,101902.81
2023-02-19T08:58:40.085Z,101903.03
2023-02-19T09:01:13.453Z,101906.41
2023-02-19T09:03:41.201Z,101905.63
2023-02-19T09:06:08.449Z,101898.66
2023-02-19T09:08:35.297Z,101902.97
2023-02-19T09:11:04.953Z,101904.59
2023-02-19T09:13:31.849Z,101915.03
2023-02-19T09:15:58.721Z,101917.56
2023-02-19T09:18:26.439Z,101915.81
2023-02-19T09:20:53.291Z,101920.16
2023-02-19T09:23:20.188Z,101929.38
2023-02-19T09:25:47.366Z,101932.13
2023-02-19T09:28:14.110Z,101933.19
2023-02-19T09:30:40.905Z,101940.06
2023-02-19T09:33:07.644Z,101947.81
2023-02-19T09:35:34.437Z,101953.00
2023-02-19T09:38:02.095Z,101943.53
2023-02-19T09:40:30.587Z,101952.09
2023-02-19T09:42:58.929Z,101952.09
2023-02-19T09:45:27.227Z,101957.34
2023-02-19T09:47:57.431Z,101949.50
2023-02-19T09:50:37.010Z,101942.63
2023-02-19T09:53:21.270Z,101953.09
2023-02-19T09:55:48.519Z,101955.88
2023-02-19T09:58:44.180Z,101965.50
2023-02-19T10:01:12.654Z,101966.38
2023-02-19T10:03:43.689Z,101965.44
2023-02-19T10:06:26.363Z,101977.31
2023-02-19T10:09:18.476Z,101997.31
2023-02-19T10:11:45.718Z,102005.00
2023-02-19T10:14:24.880Z,102016.19
2023-02-19T10:16:53.269Z,102014.31
2023-02-19T10:19:20.037Z,102034.88
2023-02-19T10:21:47.106Z,102045.97
2023-02-19T10:24:22.072Z,102038.84
2023-02-19T10:26:50.111Z,102020.47
2023-02-19T10:29:16.819Z,102020.50
2023-02-19T10:31:43.767Z,102024.50
2023-02-19T10:34:22.189Z,102034.69
2023-02-19T10:36:51.577Z,102042.50
2023-02-19T10:39:42.670Z,102044.56
2023-02-19T10:42:22.531Z,102053.28
2023-02-19T10:44:58.599Z,102053.44
2023-02-19T10:47:27.565Z,102065.59
2023-02-19T10:49:58.501Z,102056.09
2023-02-19T10:52:34.278Z,102055.19
2023-02-19T10:55:19.474Z,102055.81
2023-02-19T10:57:46.881Z,102065.38
2023-02-19T11:00:16.845Z,102065.91
2023-02-19T11:02:44.967Z,102060.53
2023-02-19T11:05:17.995Z,102075.00
2023-02-19T11:07:56.590Z,102082.88
2023-02-19T11:10:27.910Z,102088.53
2023-02-19T11:13:02.251Z,102087.06
2023-02-19T11:15:35.486Z,102091.53
2023-02-19T11:18:25.580Z,102091.69
2023-02-19T11:20:59.209Z,102085.66
2023-02-19T11:23:46.114Z,102090.03
2023-02-19T11:26:23.832Z,102084.00
2023-02-19T11:29:02.953Z,102079.66
2023-02-19T11:31:33.171Z,102085.56
2023-02-19T11:34:14.102Z,102073.34
2023-02-19T11:36:42.519Z,102074.94
2023-02-19T11:39:15.292Z,102076.69
2023-02-19T11:42:08.013Z,102066.31
2023-02-19T11:45:11.832Z,102058.53
2023-02-19T11:47:50.548Z,102060.25
2023-02-19T11:50:47.504Z,102063.81
2023-02-19T11:53:33.998Z,102073.75
2023-02-19T11:56:23.943Z,102074.66
2023-02-19T11:59:02.942Z,102067.06
2023-02-19T12:01:45.128Z,102063.53
2023-02-19T12:05:03.900Z,102071.22
2023-02-19T12:08:10.533Z,102057.22
2023-02-19T12:11:29.241Z,102062.31
2023-02-19T12:14:02.041Z,102061.19
2023-02-19T12:16:58.585Z,102062.00
2023-02-19T12:19:56.605Z,102072.50
2023-02-19T12:22:44.497Z,102072.56
2023-02-19T12:25:35.259Z,102075.22
2023-02-19T12:28:23.386Z,102083.78
2023-02-19T12:31:34.867Z,102090.69
2023-02-19T12:34:25.947Z,102089.78
2023-02-19T12:37:07.063Z,102083.38
2023-02-19T12:39:48.584Z,102090.38
2023-02-19T12:43:15.376Z,102088.41
2023-02-19T12:46:09.060Z,102086.50
2023-02-19T12:48:50.366Z,102081.22
2023-02-19T12:51:58.568Z,102082.06
2023-02-19T12:54:31.004Z,102077.66
2023-02-19T12:57:24.629Z,102085.69
2023-02-19T13:00:23.238Z,102085.00
2023-02-19T13:02:59.344Z,102083.47
2023-02-19T13:05:47.355Z,102087.06
2023-02-19T13:08:34.166Z,102085.34
2023-02-19T13:11:35.732Z,102079.28
2023-02-19T13:14:15.263Z,102082.72
2023-02-19T13:16:51.348Z,102083.63
2023-02-19T13:19:18.270Z,102097.38
2023-02-19T13:22:11.692Z,102086.06
2023-02-19T13:24:42.778Z,102093.03
2023-02-19T13:27:31.321Z,102099.97
2023-02-19T13:30:26.665Z,102090.44
2023-02-19T13:33:16.077Z,102086.78
2023-02-19T13:36:14.509Z,102093.88
2023-02-19T13:38:45.885Z,102098.25
2023-02-19T13:41:28.602Z,102110.31
2023-02-19T13:44:03.599Z,102112.91
2023-02-19T13:46:38.624Z,102112.88
2023-02-19T13:49:27.542Z,102110.19
2023-02-19T13:52:00.267Z,102105.66
2023-02-19T13:54:36.011Z,102106.72
2023-02-19T13:57:28.528Z,102108.41
2023-02-19T14:00:00.085Z,102125.56
2023-02-19T14:02:32.807Z,102123.75
2023-02-19T14:05:11.059Z,102120.53
2023-02-19T14:07:49.321Z,102126.56
2023-02-19T14:10:57.506Z,102146.38
2023-02-19T14:13:52.542Z,102138.84
2023-02-19T14:16:37.810Z,102139.56
2023-02-19T14:19:14.789Z,102141.06
2023-02-19T14:21:43.904Z,102140.31
2023-02-19T14:24:15.150Z,102144.72
2023-02-19T14:26:42.536Z,102155.03
2023-02-19T14:29:14.652Z,102162.81
2023-02-19T14:31:45.990Z,102162.88
2023-02-19T14:34:22.390Z,102165.72
2023-02-19T14:36:59.099Z,102173.47
2023-02-19T14:39:40.363Z,102165.00
2023-02-19T14:42:21.847Z,102171.19
2023-02-19T14:44:52.762Z,102169.41
2023-02-19T14:47:23.491Z,102169.50
2023-02-19T14:50:04.706Z,102172.94
2023-02-19T14:52:41.121Z,102168.56
2023-02-19T14:55:14.743Z,102172.91
2023-02-19T14:57:48.315Z,102179.00
2023-02-19T15:00:22.459Z,102185.00
2023-02-19T15:02:52.087Z,102177.28
2023-02-19T15:05:25.542Z,102172.91
2023-02-19T15:08:01.027Z,102158.31
2023-02-19T15:10:31.129Z,102160.91
2023-02-19T15:13:08.181Z,102161.81
2023-02-19T15:15:44.379Z,102156.66
2023-02-19T15:18:22.290Z,102152.38
2023-02-19T15:20:50.918Z,102144.59
2023-02-19T15:23:25.349Z,102144.69
2023-02-19T15:25:53.765Z,102139.50
2023-02-19T15:28:25.142Z,102133.53
2023-02-19T15:30:57.855Z,102134.41
2023-02-19T15:33:29.530Z,102133.63
2023-02-19T15:36:01.883Z,102123.25
2023-02-19T15:38:30.492Z,102116.44
2023-02-19T15:41:01.180Z,102114.72
2023-02-19T15:43:45.386Z,102103.59
2023-02-19T15:46:24.385Z,102109.63
2023-02-19T15:49:09.954Z,102101.91
2023-02-19T15:52:07.955Z,102101.06
2023-02-19T15:54:54.653Z,102120.06
2023-02-19T15:57:30.623Z,102112.28
2023-02-19T16:00:07.149Z,102117.47
2023-02-19T16:02:42.890Z,102120.06
2023-02-19T16:05:27.009Z,102115.78
2023-02-19T16:08:19.443Z,102121.81
2023-02-19T16:10:58.709Z,102127.88
2023-02-19T16:13:29.821Z,102141.66
2023-02-19T16:16:30.073Z,102145.97
2023-02-19T16:18:57.834Z,102151.97
2023-02-19T16:21:27.346Z,102165.75
2023-02-19T16:24:11.125Z,102158.84
2023-02-19T16:26:42.980Z,102164.91
2023-02-19T16:29:21.741Z,102162.28
2023-02-19T16:32:01.622Z,102168.31
2023-02-19T16:34:39.536Z,102169.16
2023-02-19T16:37:41.300Z,102167.47
2023-02-19T16:40:08.018Z,102193.38
2023-02-19T16:43:04.836Z,102197.66
2023-02-19T16:45:31.873Z,102197.66
2023-02-19T16:47:58.663Z,102202.84
2023-02-19T16:50:27.262Z,102211.50
2023-02-19T16:53:02.996Z,102220.97
2023-02-19T16:55:32.625Z,102216.69
2023-02-19T16:57:59.800Z,102233.91
2023-02-19T17:00:32.037Z,102238.25
2023-02-19T17:03:09.087Z,102243.44
2023-02-19T17:05:38.282Z,102243.47
2023-02-19T17:08:31.576Z,102255.53
2023-02-19T17:10:59.278Z,102261.59
2023-02-19T17:13:26.290Z,102255.56
2023-02-19T17:15:54.036Z,102261.63
2023-02-19T17:18:20.942Z,102265.91
2023-02-19T17:20:57.032Z,102276.28
2023-02-19T17:23:24.674Z,102290.06
2023-02-19T17:25:51.532Z,102283.19
2023-02-19T17:28:18.782Z,102284.91
2023-02-19T17:30:45.626Z,102276.28
2023-02-19T17:33:12.688Z,102279.78
2023-02-19T17:35:39.568Z,102278.03
2023-02-19T17:38:09.625Z,102290.13
2023-02-19T17:40:38.206Z,102282.34
2023-02-19T17:43:08.871Z,102292.72
2023-02-19T17:45:35.718Z,102291.00
2023-02-19T17:48:02.743Z,102303.06
2023-02-19T17:50:31.908Z,102291.00
2023-02-19T17:52:59.658Z,102288.41
2023-02-19T17:55:26.710Z,102294.44
2023-02-19T17:57:54.299Z,102299.63
2023-02-19T18:00:27.918Z,102307.41
2023-02-19T18:02:55.287Z,102306.53
2023-02-19T18:05:22.918Z,102308.25
2023-02-19T18:07:50.932Z,102306.53
2023-02-19T18:10:20.202Z,102306.50
2023-02-19T18:12:47.866Z,102316.88
2023-02-19T18:15:26.380Z,102319.44
2023-02-19T18:17:55.148Z,102320.31
2023-02-19T18:20:30.841Z,102320.31
2023-02-19T18:22:58.699Z,102319.47
2023-02-19T18:25:26.254Z,102309.97
2023-02-19T18:27:55.250Z,102322.03
2023-02-19T18:30:23.890Z,102322.03
2023-02-19T18:33:23.749Z,102322.88
2023-02-19T18:36:14.738Z,102321.16
2023-02-19T18:39:06.615Z,102318.59
2023-02-19T18:41:33.341Z,102327.19
2023-02-19T18:44:00.608Z,102335.78
2023-02-19T18:46:27.449Z,102338.38
2023-02-19T18:48:54.328Z,102337.53
2023-02-19T18:51:23.742Z,102343.53
2023-02-19T18:53:50.972Z,102340.09
2023-02-19T18:56:18.033Z,102338.38
2023-02-19T18:58:44.833Z,102343.56
2023-02-19T19:01:14.127Z,102343.53
2023-02-19T19:03:41.204Z,102346.09
2023-02-19T19:06:08.274Z,102350.41
2023-02-19T19:08:35.246Z,102355.63
2023-02-19T19:11:02.683Z,102348.72
2023-02-19T19:13:30.275Z,102343.53
2023-02-19T19:15:57.073Z,102349.56
2023-02-19T19:18:25.090Z,102349.56
2023-02-19T19:20:56.231Z,102349.56
2023-02-19T19:23:23.073Z,102352.09
2023-02-19T19:25:50.320Z,102359.03
2023-02-19T19:28:17.216Z,102364.16
2023-02-19T19:30:44.264Z,102377.09
2023-02-19T19:33:12.097Z,102377.97
2023-02-19T19:35:40.866Z,102369.38
2023-02-19T19:38:07.673Z,102373.66
2023-02-19T19:40:34.433Z,102372.78
2023-02-19T19:43:01.473Z,102364.19
2023-02-19T19:45:28.279Z,102365.91
2023-02-19T19:47:55.021Z,102359.88
2023-02-19T19:50:22.176Z,102348.69
2023-02-19T19:52:48.948Z,102364.16
2023-02-19T19:55:16.402Z,102366.75
2023-02-19T19:57:43.329Z,102368.44
2023-02-19T20:00:16.041Z,102365.00
2023-02-19T20:02:42.797Z,102371.03
2023-02-19T20:05:10.391Z,102374.41
2023-02-19T20:07:37.200Z,102368.38
2023-02-19T20:10:05.517Z,102376.94
2023-02-19T20:12:32.423Z,102391.53
2023-02-19T20:14:59.250Z,102391.53
2023-02-19T20:17:28.741Z,102387.22
2023-02-19T20:19:55.576Z,102385.44
2023-02-19T20:22:22.449Z,102394.06
2023-02-19T20:24:52.899Z,102399.13
2023-02-19T20:27:21.362Z,102398.25
2023-02-19T20:29:48.910Z,102390.50
2023-02-19T20:32:20.814Z,102390.50
2023-02-19T20:34:48.601Z,102386.19
2023-02-19T20:37:15.663Z,102386.13
2023-02-19T20:39:42.573Z,102378.34
2023-02-19T20:42:09.458Z,102389.34
2023-02-19T20:44:36.256Z,102396.22
2023-02-19T20:47:03.317Z,102396.19
2023-02-19T20:49:31.736Z,102391.84
2023-02-19T20:52:04.561Z,102395.31
2023-02-19T20:54:34.842Z,102417.63
2023-02-19T20:57:04.982Z,102421.97
2023-02-19T20:59:35.468Z,102428.81
2023-02-19T21:02:05.370Z,102433.94
2023-02-19T21:04:33.140Z,102437.25
2023-02-19T21:06:59.986Z,102429.31
2023-02-19T21:09:26.916Z,102433.72
2023-02-19T21:11:53.752Z,102421.56
2023-02-19T21:14:20.786Z,102423.25
2023-02-19T21:16:47.654Z,102422.38
2023-02-19T21:19:14.570Z,102417.06
2023-02-19T21:21:41.538Z,102424.69
2023-02-19T21:24:10.539Z,102415.34
2023-02-19T21:26:40.156Z,102416.22
2023-02-19T21:29:10.710Z,102419.56
2023-02-19T21:31:43.744Z,102417.81
2023-02-19T21:34:13.663Z,102425.50
2023-02-19T21:36:40.605Z,102429.56
2023-02-19T21:39:09.123Z,102423.66
2023-02-19T21:41:36.624Z,102424.50
2023-02-19T21:44:04.422Z,102428.81
2023-02-19T21:46:32.882Z,102427.97
2023-02-19T21:49:00.371Z,102432.22
2023-02-19T21:51:39.844Z,102440.59
2023-02-19T21:54:08.290Z,102434.56
2023-02-19T21:56:36.630Z,102424.28
2023-02-19T21:59:03.956Z,102420.81
2023-02-19T22:01:39.899Z,102418.16
2023-02-19T22:04:08.519Z,102415.44
2023-02-19T22:06:35.494Z,102412.09
2023-02-19T22:09:02.335Z,102413.91
2023-02-19T22:11:29.216Z,102411.38
2023-02-19T22:13:56.072Z,102414.63
2023-02-19T22:16:23.707Z,102415.38
2023-02-19T22:18:53.581Z,102427.41
2023-02-19T22:21:23.301Z,102425.75
2023-02-19T22:23:53.258Z,102413.66
2023-02-19T22:26:31.827Z,102426.53
2023-02-19T22:28:59.617Z,102428.25
2023-02-19T22:31:28.329Z,102423.06
2023-02-19T22:33:57.145Z,102413.72
2023-02-19T22:36:33.321Z,102422.22
2023-02-19T22:39:01.440Z,102420.47
2023-02-19T22:41:28.422Z,102423.97
2023-02-19T22:43:57.052Z,102425.63
2023-02-19T22:46:27.512Z,102427.34
2023-02-19T22:48:54.515Z,102423.06
2023-02-19T22:51:24.397Z,102419.69
2023-02-19T22:53:56.980Z,102418.03
2023-02-19T22:56:27.178Z,102430.78
2023-02-19T22:58:56.413Z,102418.88
2023-02-19T23:01:24.014Z,102414.56
2023-02-19T23:03:57.810Z,102414.44
2023-02-19T23:06:32.142Z,102423.88
2023-02-19T23:09:06.327Z,102417.00
2023-02-19T23:11:39.000Z,102418.66
2023-02-19T23:14:07.208Z,102418.56
2023-02-19T23:16:36.628Z,102411.75
2023-02-19T23:19:12.583Z,102409.16
2023-02-19T23:21:41.962Z,102409.94
2023-02-19T23:24:09.309Z,102415.06
2023-02-19T23:26:36.397Z,102406.47
2023-02-19T23:29:03.473Z,102408.13
2023-02-19T23:31:30.445Z,102408.09
2023-02-19T23:33:57.250Z,102401.22
2023-02-19T23:36:24.146Z,102395.22
2023-02-19T23:38:51.037Z,102401.06
2023-02-19T23:41:18.595Z,102407.84
2023-02-19T23:43:45.494Z,102393.38
2023-02-19T23:46:18.721Z,102395.88
2023-02-19T23:48:46.300Z,102383.97
2023-02-19T23:51:13.377Z,102392.41
2023-02-19T23:53:40.256Z,102386.28
2023-02-19T23:56:07.588Z,102392.25
2023-02-19T23:58:34.354Z,102386.22
